Bookmark and Share
Track history (hours):
 

Maria

Last reported at 2014-Apr-15 08:33 UTC. Time now 2014-Apr-16 05:30 UTC.
Position N 37°55' E 023°33'.

Length 74 m; draft 4.5 m.

Type: Ship. MMSI: 237493000.

NotesDate/timePositionNaut miles runAvg speedWind from/ knotsBaromVisibWave heightAir tempDewpointWater temp
2014-Apr-15 08:33N 37°55' E 023°33'0 0.1
2014-Apr-15 07:34N 37°55' E 023°33'3 3.0
2014-Apr-15 06:34N 37°58' E 023°35'0 0.0
2014-Apr-15 05:34N 37°58' E 023°35'1 0.0
2014-Apr-13 11:33N 37°57' E 023°35'2 2.0
2014-Apr-13 10:32N 37°55' E 023°33'2 2.5
2014-Apr-13 09:33N 37°57' E 023°35'0 0.2
2014-Apr-13 08:29N 37°57' E 023°35'0 0.3
2014-Apr-13 07:33N 37°57' E 023°36'0 0.2
2014-Apr-13 06:33N 37°57' E 023°36'1 1.0
2014-Apr-13 05:32N 37°58' E 023°35'0 0.0
2014-Apr-12 09:12N 37°58' E 023°35'0 0.0
2014-Apr-12 06:33N 37°58' E 023°35'0 0.0
2014-Apr-11 12:33N 37°58' E 023°35'2 1.7
2014-Apr-11 11:33N 37°56' E 023°34'5 4.5
2014-Apr-11 10:33N 37°53' E 023°30'0 0.0
2014-Apr-11 09:33N 37°53' E 023°30'0 0.0
2014-Apr-11 08:11N 37°53' E 023°30'1 1.9
2014-Apr-11 07:30N 37°53' E 023°32'5 5.1
2014-Apr-11 06:33N 37°58' E 023°35'  
2014-Apr-08 14:33N 37°58' E 023°35'0 0.0
2014-Apr-07 13:13N 37°58' E 023°35'3 4.8
2014-Apr-07 12:33N 37°56' E 023°38'0 0.0
2014-Apr-07 11:33N 37°56' E 023°38'0 0.0
2014-Apr-07 10:33N 37°56' E 023°38'0 0.0
2014-Apr-07 09:33N 37°56' E 023°38'0 0.0
2014-Apr-07 08:32N 37°56' E 023°38'0 0.0
2014-Apr-07 07:33N 37°56' E 023°38'3 2.6
2014-Apr-07 06:33N 37°57' E 023°35'1 0.0
2014-Apr-06 11:33N 37°58' E 023°35'5 3.9
2014-Apr-06 10:21N 37°53' E 023°32'0 0.0
2014-Apr-06 09:29N 37°53' E 023°32'5 4.9
2014-Apr-06 08:33N 37°58' E 023°35'0 0.0
2014-Apr-05 17:25N 37°58' E 023°35'5 1.1
2014-Apr-05 12:33N 38°02' E 023°31'  

Dump ship's entire track history

sailing weather and tide predictions

Maria — SV7156 — position and weather